sensor_id;sensor_type;location;lat;lon;timestamp;pressure;altitude;pressure_sealevel;temperature;humidity
77003;BME280;65939;50.060;14.288;2023-04-24T00:00:12;96153.59;;;11.90;82.99
77003;BME280;65939;50.060;14.288;2023-04-24T00:02:15;96163.69;;;11.93;81.63
77003;BME280;65939;50.060;14.288;2023-04-24T00:04:16;96155.44;;;11.96;82.42
77003;BME280;65939;50.060;14.288;2023-04-24T00:06:17;96157.69;;;12.00;81.27
77003;BME280;65939;50.060;14.288;2023-04-24T00:08:18;96151.06;;;12.04;80.61
77003;BME280;65939;50.060;14.288;2023-04-24T00:10:19;96145.44;;;12.07;80.78
77003;BME280;65939;50.060;14.288;2023-04-24T00:12:19;96151.09;;;12.10;80.82
77003;BME280;65939;50.060;14.288;2023-04-24T00:14:20;96155.75;;;12.15;81.23
77003;BME280;65939;50.060;14.288;2023-04-24T00:16:21;96152.75;;;12.18;80.89
77003;BME280;65939;50.060;14.288;2023-04-24T00:18:22;96162.03;;;12.20;80.98
77003;BME280;65939;50.060;14.288;2023-04-24T00:20:23;96157.59;;;12.21;81.34
77003;BME280;65939;50.060;14.288;2023-04-24T00:22:27;96147.72;;;12.23;80.13
77003;BME280;65939;50.060;14.288;2023-04-24T00:24:28;96146.53;;;12.26;79.78
77003;BME280;65939;50.060;14.288;2023-04-24T00:26:29;96147.34;;;12.26;80.37
77003;BME280;65939;50.060;14.288;2023-04-24T00:28:29;96144.56;;;12.28;79.78
77003;BME280;65939;50.060;14.288;2023-04-24T00:30:30;96144.13;;;12.31;80.62
77003;BME280;65939;50.060;14.288;2023-04-24T00:32:31;96139.75;;;12.31;79.71
77003;BME280;65939;50.060;14.288;2023-04-24T00:34:31;96138.72;;;12.32;80.15
77003;BME280;65939;50.060;14.288;2023-04-24T00:36:32;96146.38;;;12.34;80.78
77003;BME280;65939;50.060;14.288;2023-04-24T00:38:33;96132.47;;;12.33;80.27
77003;BME280;65939;50.060;14.288;2023-04-24T00:40:34;96128.84;;;12.34;79.88
77003;BME280;65939;50.060;14.288;2023-04-24T00:42:35;96130.50;;;12.35;79.64
77003;BME280;65939;50.060;14.288;2023-04-24T00:44:35;96126.06;;;12.36;78.91
77003;BME280;65939;50.060;14.288;2023-04-24T00:46:36;96125.25;;;12.35;80.46
77003;BME280;65939;50.060;14.288;2023-04-24T00:48:39;96116.41;;;12.36;80.00
77003;BME280;65939;50.060;14.288;2023-04-24T00:50:40;96117.41;;;12.35;79.97
77003;BME280;65939;50.060;14.288;2023-04-24T00:52:41;96116.78;;;12.33;79.91
77003;BME280;65939;50.060;14.288;2023-04-24T00:54:41;96115.16;;;12.32;80.60
77003;BME280;65939;50.060;14.288;2023-04-24T00:56:44;96110.31;;;12.29;80.86
77003;BME280;65939;50.060;14.288;2023-04-24T00:58:45;96107.09;;;12.27;81.43
77003;BME280;65939;50.060;14.288;2023-04-24T01:00:48;96112.53;;;12.26;80.73
77003;BME280;65939;50.060;14.288;2023-04-24T01:02:49;96112.09;;;12.22;80.71
77003;BME280;65939;50.060;14.288;2023-04-24T01:04:52;96120.56;;;12.17;81.16
77003;BME280;65939;50.060;14.288;2023-04-24T01:06:54;96108.66;;;12.15;81.08
77003;BME280;65939;50.060;14.288;2023-04-24T01:08:57;96111.47;;;12.13;82.17
77003;BME280;65939;50.060;14.288;2023-04-24T01:11:00;96109.03;;;12.12;81.40
77003;BME280;65939;50.060;14.288;2023-04-24T01:13:03;96091.72;;;12.11;81.49
77003;BME280;65939;50.060;14.288;2023-04-24T01:15:05;96093.53;;;12.10;81.47
77003;BME280;65939;50.060;14.288;2023-04-24T01:17:06;96084.91;;;12.10;81.83
77003;BME280;65939;50.060;14.288;2023-04-24T01:19:09;96085.69;;;12.10;83.46
77003;BME280;65939;50.060;14.288;2023-04-24T01:21:14;96087.69;;;12.08;83.76
77003;BME280;65939;50.060;14.288;2023-04-24T01:23:17;96096.72;;;12.06;83.49
77003;BME280;65939;50.060;14.288;2023-04-24T01:25:17;96087.28;;;12.05;84.13
77003;BME280;65939;50.060;14.288;2023-04-24T01:27:19;96096.72;;;12.06;83.58
77003;BME280;65939;50.060;14.288;2023-04-24T01:29:20;96096.94;;;12.04;83.39
77003;BME280;65939;50.060;14.288;2023-04-24T01:31:21;96091.91;;;12.03;84.13
77003;BME280;65939;50.060;14.288;2023-04-24T01:33:22;96089.28;;;12.03;84.89
77003;BME280;65939;50.060;14.288;2023-04-24T01:35:23;96084.06;;;12.03;84.45
77003;BME280;65939;50.060;14.288;2023-04-24T01:37:23;96091.91;;;12.03;85.18
77003;BME280;65939;50.060;14.288;2023-04-24T01:39:24;96086.03;;;12.01;85.04
77003;BME280;65939;50.060;14.288;2023-04-24T01:41:26;96089.03;;;11.97;85.09
77003;BME280;65939;50.060;14.288;2023-04-24T01:43:27;96090.06;;;11.96;86.23
77003;BME280;65939;50.060;14.288;2023-04-24T01:45:27;96101.31;;;11.97;85.81
77003;BME280;65939;50.060;14.288;2023-04-24T01:47:29;96097.91;;;11.96;86.27
77003;BME280;65939;50.060;14.288;2023-04-24T01:49:31;96105.53;;;11.98;86.41
77003;BME280;65939;50.060;14.288;2023-04-24T01:51:32;96097.53;;;12.00;85.53
77003;BME280;65939;50.060;14.288;2023-04-24T01:53:33;96090.47;;;12.00;85.77
77003;BME280;65939;50.060;14.288;2023-04-24T01:55:33;96092.09;;;12.01;85.47
77003;BME280;65939;50.060;14.288;2023-04-24T01:57:35;96096.31;;;12.02;86.09
77003;BME280;65939;50.060;14.288;2023-04-24T01:59:36;96091.06;;;12.02;87.02
77003;BME280;65939;50.060;14.288;2023-04-24T02:01:37;96090.28;;;12.02;86.80
77003;BME280;65939;50.060;14.288;2023-04-24T02:03:38;96089.28;;;12.03;86.21
77003;BME280;65939;50.060;14.288;2023-04-24T02:05:39;96087.84;;;12.00;86.59
77003;BME280;65939;50.060;14.288;2023-04-24T02:07:40;96079.59;;;11.96;86.54
77003;BME280;65939;50.060;14.288;2023-04-24T02:09:40;96082.59;;;11.93;87.78
77003;BME280;65939;50.060;14.288;2023-04-24T02:11:41;96083.59;;;11.92;87.71
77003;BME280;65939;50.060;14.288;2023-04-24T02:13:42;96086.41;;;11.91;88.26
77003;BME280;65939;50.060;14.288;2023-04-24T02:15:42;96088.41;;;11.89;87.84
77003;BME280;65939;50.060;14.288;2023-04-24T02:17:43;96080.38;;;11.90;88.30
77003;BME280;65939;50.060;14.288;2023-04-24T02:19:44;96077.75;;;11.90;88.07
77003;BME280;65939;50.060;14.288;2023-04-24T02:21:44;96081.97;;;11.91;88.11
77003;BME280;65939;50.060;14.288;2023-04-24T02:23:45;96084.59;;;11.91;88.56
77003;BME280;65939;50.060;14.288;2023-04-24T02:25:46;96080.38;;;11.90;88.55
77003;BME280;65939;50.060;14.288;2023-04-24T02:27:46;96070.91;;;11.89;88.31
77003;BME280;65939;50.060;14.288;2023-04-24T02:29:47;96072.50;;;11.90;89.19
77003;BME280;65939;50.060;14.288;2023-04-24T02:31:47;96070.69;;;11.91;89.10
77003;BME280;65939;50.060;14.288;2023-04-24T02:33:48;96075.75;;;11.92;89.17
77003;BME280;65939;50.060;14.288;2023-04-24T02:35:49;96069.50;;;11.93;88.84
77003;BME280;65939;50.060;14.288;2023-04-24T02:37:49;96085.84;;;11.95;88.85
77003;BME280;65939;50.060;14.288;2023-04-24T02:39:50;96079.78;;;11.95;88.91
77003;BME280;65939;50.060;14.288;2023-04-24T02:41:51;96085.84;;;11.95;88.82
77003;BME280;65939;50.060;14.288;2023-04-24T02:43:51;96083.81;;;11.97;89.61
77003;BME280;65939;50.060;14.288;2023-04-24T02:45:52;96070.75;;;11.97;89.42
77003;BME280;65939;50.060;14.288;2023-04-24T02:47:53;96082.81;;;11.98;89.64
77003;BME280;65939;50.060;14.288;2023-04-24T02:49:53;96077.16;;;11.95;89.09
77003;BME280;65939;50.060;14.288;2023-04-24T02:51:54;96084.59;;;11.91;89.04
77003;BME280;65939;50.060;14.288;2023-04-24T02:53:55;96088.22;;;11.90;89.68
77003;BME280;65939;50.060;14.288;2023-04-24T02:55:56;96084.78;;;11.90;89.15
77003;BME280;65939;50.060;14.288;2023-04-24T02:57:56;96083.34;;;11.87;89.70
77003;BME280;65939;50.060;14.288;2023-04-24T02:59:57;96084.16;;;11.88;89.54
77003;BME280;65939;50.060;14.288;2023-04-24T03:01:58;96087.59;;;11.88;89.70
77003;BME280;65939;50.060;14.288;2023-04-24T03:03:58;96078.75;;;11.89;90.40
77003;BME280;65939;50.060;14.288;2023-04-24T03:05:59;96075.13;;;11.90;89.01
77003;BME280;65939;50.060;14.288;2023-04-24T03:08:00;96073.13;;;11.92;89.58
77003;BME280;65939;50.060;14.288;2023-04-24T03:10:00;96072.34;;;11.92;89.51
77003;BME280;65939;50.060;14.288;2023-04-24T03:12:02;96081.00;;;11.92;89.56
77003;BME280;65939;50.060;14.288;2023-04-24T03:14:03;96070.13;;;11.95;89.64
77003;BME280;65939;50.060;14.288;2023-04-24T03:16:04;96071.53;;;11.98;88.33
77003;BME280;65939;50.060;14.288;2023-04-24T03:18:05;96065.72;;;11.96;89.09
77003;BME280;65939;50.060;14.288;2023-04-24T03:20:06;96063.91;;;11.96;89.10
77003;BME280;65939;50.060;14.288;2023-04-24T03:22:08;96063.91;;;11.96;89.87
77003;BME280;65939;50.060;14.288;2023-04-24T03:24:09;96066.50;;;11.96;89.42
77003;BME280;65939;50.060;14.288;2023-04-24T03:26:10;96063.28;;;11.94;89.46
77003;BME280;65939;50.060;14.288;2023-04-24T03:28:11;96074.38;;;11.96;89.85
77003;BME280;65939;50.060;14.288;2023-04-24T03:30:11;96077.16;;;11.95;89.21
77003;BME280;65939;50.060;14.288;2023-04-24T03:32:12;96082.38;;;11.95;89.38
77003;BME280;65939;50.060;14.288;2023-04-24T03:34:13;96071.91;;;11.95;89.58
77003;BME280;65939;50.060;14.288;2023-04-24T03:36:14;96079.97;;;11.93;89.99
77003;BME280;65939;50.060;14.288;2023-04-24T03:38:14;96077.38;;;11.93;89.92
77003;BME280;65939;50.060;14.288;2023-04-24T03:40:15;96079.19;;;11.93;89.76
77003;BME280;65939;50.060;14.288;2023-04-24T03:42:16;96081.16;;;11.91;90.25
77003;BME280;65939;50.060;14.288;2023-04-24T03:44:16;96084.00;;;11.89;90.60
77003;BME280;65939;50.060;14.288;2023-04-24T03:46:17;96087.59;;;11.88;89.53
77003;BME280;65939;50.060;14.288;2023-04-24T03:48:18;96084.38;;;11.86;90.63
77003;BME280;65939;50.060;14.288;2023-04-24T03:50:18;96082.75;;;11.85;89.54
77003;BME280;65939;50.060;14.288;2023-04-24T03:52:19;96081.75;;;11.86;89.83
77003;BME280;65939;50.060;14.288;2023-04-24T03:54:19;96085.38;;;11.85;90.04
77003;BME280;65939;50.060;14.288;2023-04-24T03:56:20;96081.75;;;11.86;89.93
77003;BME280;65939;50.060;14.288;2023-04-24T03:58:21;96092.00;;;11.88;89.47
77003;BME280;65939;50.060;14.288;2023-04-24T04:00:22;96092.00;;;11.88;89.37
77003;BME280;65939;50.060;14.288;2023-04-24T04:02:22;96089.22;;;11.89;89.81
77003;BME280;65939;50.060;14.288;2023-04-24T04:04:23;96086.41;;;11.91;89.66
77003;BME280;65939;50.060;14.288;2023-04-24T04:06:24;96094.06;;;11.92;89.31
77003;BME280;65939;50.060;14.288;2023-04-24T04:08:24;96097.66;;;11.91;89.61
77003;BME280;65939;50.060;14.288;2023-04-24T04:10:25;96096.69;;;11.92;88.59
77003;BME280;65939;50.060;14.288;2023-04-24T04:12:25;96098.28;;;11.93;89.12
77003;BME280;65939;50.060;14.288;2023-04-24T04:14:27;96099.88;;;11.94;88.41
77003;BME280;65939;50.060;14.288;2023-04-24T04:16:28;96098.91;;;11.95;89.25
77003;BME280;65939;50.060;14.288;2023-04-24T04:18:28;96099.72;;;11.96;89.36
77003;BME280;65939;50.060;14.288;2023-04-24T04:20:29;96101.53;;;11.95;88.82
77003;BME280;65939;50.060;14.288;2023-04-24T04:22:30;96097.28;;;11.94;89.08
77003;BME280;65939;50.060;14.288;2023-04-24T04:24:31;96105.94;;;11.95;88.44
77003;BME280;65939;50.060;14.288;2023-04-24T04:26:31;96100.91;;;11.93;88.86
77003;BME280;65939;50.060;14.288;2023-04-24T04:28:33;96103.31;;;11.95;89.23
77003;BME280;65939;50.060;14.288;2023-04-24T04:30:33;96110.19;;;11.96;89.25
77003;BME280;65939;50.060;14.288;2023-04-24T04:32:34;96105.75;;;11.96;89.24
77003;BME280;65939;50.060;14.288;2023-04-24T04:34:35;96115.03;;;11.99;88.15
77003;BME280;65939;50.060;14.288;2023-04-24T04:36:37;96117.44;;;12.01;88.24
77003;BME280;65939;50.060;14.288;2023-04-24T04:38:40;96116.44;;;12.02;88.30
77003;BME280;65939;50.060;14.288;2023-04-24T04:40:41;96118.88;;;12.03;88.55
77003;BME280;65939;50.060;14.288;2023-04-24T04:42:41;96128.94;;;12.06;88.93
77003;BME280;65939;50.060;14.288;2023-04-24T04:44:42;96127.72;;;12.09;88.67
77003;BME280;65939;50.060;14.288;2023-04-24T04:46:45;96130.19;;;12.10;89.32
77003;BME280;65939;50.060;14.288;2023-04-24T04:48:46;96133.22;;;12.14;88.30
77003;BME280;65939;50.060;14.288;2023-04-24T04:50:47;96132.00;;;12.16;88.85
77003;BME280;65939;50.060;14.288;2023-04-24T04:52:47;96133.63;;;12.17;87.70
77003;BME280;65939;50.060;14.288;2023-04-24T04:54:48;96136.03;;;12.19;88.73
77003;BME280;65939;50.060;14.288;2023-04-24T04:56:52;96134.84;;;12.21;88.20
77003;BME280;65939;50.060;14.288;2023-04-24T04:58:52;96139.88;;;12.23;87.87
77003;BME280;65939;50.060;14.288;2023-04-24T05:00:53;96136.28;;;12.24;88.22
77003;BME280;65939;50.060;14.288;2023-04-24T05:02:54;96142.13;;;12.26;89.03
77003;BME280;65939;50.060;14.288;2023-04-24T05:04:54;96147.16;;;12.28;88.71
77003;BME280;65939;50.060;14.288;2023-04-24T05:06:55;96144.13;;;12.31;88.48
77003;BME280;65939;50.060;14.288;2023-04-24T05:08:56;96146.56;;;12.32;88.34
77003;BME280;65939;50.060;14.288;2023-04-24T05:10:57;96147.00;;;12.36;88.48
77003;BME280;65939;50.060;14.288;2023-04-24T05:12:58;96155.44;;;12.38;87.81
77003;BME280;65939;50.060;14.288;2023-04-24T05:15:01;96156.69;;;12.42;88.19
77003;BME280;65939;50.060;14.288;2023-04-24T05:17:01;96152.25;;;12.42;88.75
77003;BME280;65939;50.060;14.288;2023-04-24T05:19:03;96151.84;;;12.39;89.10
77003;BME280;65939;50.060;14.288;2023-04-24T05:21:04;96151.44;;;12.35;88.08
77003;BME280;65939;50.060;14.288;2023-04-24T05:23:04;96160.03;;;12.29;89.10
77003;BME280;65939;50.060;14.288;2023-04-24T05:25:05;96156.38;;;12.23;88.58
77003;BME280;65939;50.060;14.288;2023-04-24T05:27:06;96145.50;;;12.20;88.91
77003;BME280;65939;50.060;14.288;2023-04-24T05:29:07;96154.34;;;12.19;89.20
77003;BME280;65939;50.060;14.288;2023-04-24T05:31:08;96154.97;;;12.21;89.58
77003;BME280;65939;50.060;14.288;2023-04-24T05:33:08;96149.75;;;12.21;89.29
77003;BME280;65939;50.060;14.288;2023-04-24T05:35:10;96153.34;;;12.20;89.53
77003;BME280;65939;50.060;14.288;2023-04-24T05:37:10;96160.22;;;12.21;89.22
77003;BME280;65939;50.060;14.288;2023-04-24T05:39:11;96154.97;;;12.21;90.49
77003;BME280;65939;50.060;14.288;2023-04-24T05:41:12;96151.97;;;12.24;89.71
77003;BME280;65939;50.060;14.288;2023-04-24T05:43:13;96164.28;;;12.30;89.40
77003;BME280;65939;50.060;14.288;2023-04-24T05:45:13;96170.72;;;12.34;90.02
77003;BME280;65939;50.060;14.288;2023-04-24T05:47:17;96166.94;;;12.37;89.95
77003;BME280;65939;50.060;14.288;2023-04-24T05:49:17;96170.97;;;12.39;89.36
77003;BME280;65939;50.060;14.288;2023-04-24T05:51:18;96172.81;;;12.45;89.62
77003;BME280;65939;50.060;14.288;2023-04-24T05:53:18;96177.63;;;12.49;89.49
77003;BME280;65939;50.060;14.288;2023-04-24T05:55:20;96175.66;;;12.51;89.15
77003;BME280;65939;50.060;14.288;2023-04-24T05:57:20;96171.03;;;12.53;88.75
77003;BME280;65939;50.060;14.288;2023-04-24T05:59:21;96174.25;;;12.55;88.56
77003;BME280;65939;50.060;14.288;2023-04-24T06:01:21;96175.06;;;12.55;88.61
77003;BME280;65939;50.060;14.288;2023-04-24T06:03:22;96174.88;;;12.57;89.65
77003;BME280;65939;50.060;14.288;2023-04-24T06:05:23;96179.72;;;12.60;89.93
77003;BME280;65939;50.060;14.288;2023-04-24T06:07:23;96180.16;;;12.63;89.42
77003;BME280;65939;50.060;14.288;2023-04-24T06:09:25;96179.75;;;12.66;89.33
77003;BME280;65939;50.060;14.288;2023-04-24T06:11:26;96186.38;;;12.69;89.42
77003;BME280;65939;50.060;14.288;2023-04-24T06:13:27;96190.44;;;12.72;88.86
77003;BME280;65939;50.060;14.288;2023-04-24T06:15:29;96193.88;;;12.72;89.01
77003;BME280;65939;50.060;14.288;2023-04-24T06:17:34;96184.00;;;12.74;89.04
77003;BME280;65939;50.060;14.288;2023-04-24T06:19:34;96192.84;;;12.73;88.64
77003;BME280;65939;50.060;14.288;2023-04-24T06:21:35;96198.28;;;12.72;88.71
77003;BME280;65939;50.060;14.288;2023-04-24T06:23:36;96202.91;;;12.69;88.52
77003;BME280;65939;50.060;14.288;2023-04-24T06:25:37;96201.50;;;12.67;88.25
77003;BME280;65939;50.060;14.288;2023-04-24T06:27:38;96202.69;;;12.64;88.89
77003;BME280;65939;50.060;14.288;2023-04-24T06:29:39;96197.03;;;12.61;88.08
77003;BME280;65939;50.060;14.288;2023-04-24T06:31:40;96205.91;;;12.60;88.64
77003;BME280;65939;50.060;14.288;2023-04-24T06:33:40;96199.03;;;12.59;89.82
77003;BME280;65939;50.060;14.288;2023-04-24T06:35:41;96193.81;;;12.59;89.66
77003;BME280;65939;50.060;14.288;2023-04-24T06:37:42;96202.66;;;12.58;88.79
77003;BME280;65939;50.060;14.288;2023-04-24T06:39:43;96199.03;;;12.59;89.06
77003;BME280;65939;50.060;14.288;2023-04-24T06:41:44;96205.91;;;12.60;89.13
77003;BME280;65939;50.060;14.288;2023-04-24T06:43:45;96202.50;;;12.59;89.15
77003;BME280;65939;50.060;14.288;2023-04-24T06:45:45;96208.31;;;12.61;88.86
77003;BME280;65939;50.060;14.288;2023-04-24T06:47:47;96206.75;;;12.67;89.20
77003;BME280;65939;50.060;14.288;2023-04-24T06:49:48;96211.38;;;12.72;89.56
77003;BME280;65939;50.060;14.288;2023-04-24T06:51:51;96206.34;;;12.77;88.74
77003;BME280;65939;50.060;14.288;2023-04-24T06:53:55;96208.81;;;12.78;89.29
77003;BME280;65939;50.060;14.288;2023-04-24T06:55:59;96206.59;;;12.82;89.08
77003;BME280;65939;50.060;14.288;2023-04-24T06:57:59;96208.63;;;12.86;89.77
77003;BME280;65939;50.060;14.288;2023-04-24T07:00:00;96205.59;;;12.89;88.71
77003;BME280;65939;50.060;14.288;2023-04-24T07:02:01;96206.22;;;12.91;88.97
77003;BME280;65939;50.060;14.288;2023-04-24T07:04:01;96208.66;;;12.93;88.59
77003;BME280;65939;50.060;14.288;2023-04-24T07:06:03;96213.69;;;12.94;88.60
77003;BME280;65939;50.060;14.288;2023-04-24T07:08:04;96218.31;;;12.92;87.98
77003;BME280;65939;50.060;14.288;2023-04-24T07:10:07;96223.56;;;12.92;87.99
77003;BME280;65939;50.060;14.288;2023-04-24T07:12:08;96225.97;;;12.94;88.75
77003;BME280;65939;50.060;14.288;2023-04-24T07:14:11;96227.41;;;12.97;89.17
77003;BME280;65939;50.060;14.288;2023-04-24T07:16:11;96227.19;;;12.98;89.11
77003;BME280;65939;50.060;14.288;2023-04-24T07:18:12;96227.78;;;12.93;88.73
77003;BME280;65939;50.060;14.288;2023-04-24T07:20:14;96237.69;;;12.91;87.57
77003;BME280;65939;50.060;14.288;2023-04-24T07:22:15;96237.25;;;12.88;87.52
77003;BME280;65939;50.060;14.288;2023-04-24T07:24:17;96234.59;;;12.81;88.18
77003;BME280;65939;50.060;14.288;2023-04-24T07:26:17;96235.78;;;12.79;87.96
77003;BME280;65939;50.060;14.288;2023-04-24T07:28:18;96228.94;;;12.78;88.00
77003;BME280;65939;50.060;14.288;2023-04-24T07:30:19;96229.94;;;12.77;88.13
77003;BME280;65939;50.060;14.288;2023-04-24T07:32:19;96240.22;;;12.78;88.32
77003;BME280;65939;50.060;14.288;2023-04-24T07:34:20;96235.00;;;12.78;89.21
77003;BME280;65939;50.060;14.288;2023-04-24T07:36:21;96236.00;;;12.77;89.56
77003;BME280;65939;50.060;14.288;2023-04-24T07:38:21;96241.44;;;12.82;88.64
77003;BME280;65939;50.060;14.288;2023-04-24T07:40:22;96241.25;;;12.84;89.37
77003;BME280;65939;50.060;14.288;2023-04-24T07:42:23;96241.88;;;12.86;89.35
77003;BME280;65939;50.060;14.288;2023-04-24T07:44:24;96245.50;;;12.85;88.95
77003;BME280;65939;50.060;14.288;2023-04-24T07:46:25;96244.47;;;12.79;88.75
77003;BME280;65939;50.060;14.288;2023-04-24T07:48:30;96237.00;;;12.76;89.30
77003;BME280;65939;50.060;14.288;2023-04-24T07:50:30;96239.00;;;12.74;88.91
77003;BME280;65939;50.060;14.288;2023-04-24T07:52:31;96245.44;;;12.72;89.52
77003;BME280;65939;50.060;14.288;2023-04-24T07:54:32;96238.59;;;12.70;90.05
77003;BME280;65939;50.060;14.288;2023-04-24T07:56:33;96245.44;;;12.72;89.50
77003;BME280;65939;50.060;14.288;2023-04-24T07:58:34;96244.25;;;12.74;90.76
77003;BME280;65939;50.060;14.288;2023-04-24T08:00:35;96237.00;;;12.76;90.67
77003;BME280;65939;50.060;14.288;2023-04-24T08:02:36;96241.84;;;12.79;90.21
77003;BME280;65939;50.060;14.288;2023-04-24T08:04:36;96238.03;;;12.82;90.44
77003;BME280;65939;50.060;14.288;2023-04-24T08:06:37;96232.00;;;12.88;89.49
77003;BME280;65939;50.060;14.288;2023-04-24T08:08:38;96235.66;;;12.93;90.41
77003;BME280;65939;50.060;14.288;2023-04-24T08:10:39;96235.47;;;13.02;90.15
77003;BME280;65939;50.060;14.288;2023-04-24T08:12:41;96231.06;;;13.09;90.90
77003;BME280;65939;50.060;14.288;2023-04-24T08:14:42;96240.38;;;13.18;90.80
77003;BME280;65939;50.060;14.288;2023-04-24T08:16:42;96235.16;;;13.25;90.23
77003;BME280;65939;50.060;14.288;2023-04-24T08:18:43;96243.06;;;13.31;90.71
77003;BME280;65939;50.060;14.288;2023-04-24T08:20:44;96235.38;;;13.36;89.75
77003;BME280;65939;50.060;14.288;2023-04-24T08:22:45;96234.22;;;13.46;90.21
77003;BME280;65939;50.060;14.288;2023-04-24T08:24:47;96234.00;;;13.54;90.68
77003;BME280;65939;50.060;14.288;2023-04-24T08:26:48;96232.81;;;13.63;90.13
77003;BME280;65939;50.060;14.288;2023-04-24T08:28:50;96238.47;;;13.73;90.00
77003;BME280;65939;50.060;14.288;2023-04-24T08:30:51;96242.50;;;13.82;89.65
77003;BME280;65939;50.060;14.288;2023-04-24T08:32:55;96241.31;;;13.92;89.87
77003;BME280;65939;50.060;14.288;2023-04-24T08:34:56;96239.88;;;13.96;88.38
77003;BME280;65939;50.060;14.288;2023-04-24T08:36:57;96244.13;;;13.97;88.17
77003;BME280;65939;50.060;14.288;2023-04-24T08:38:58;96241.09;;;14.00;87.99
77003;BME280;65939;50.060;14.288;2023-04-24T08:41:00;96239.66;;;14.04;87.61
77003;BME280;65939;50.060;14.288;2023-04-24T08:43:02;96238.88;;;14.10;87.48
77003;BME280;65939;50.060;14.288;2023-04-24T08:45:03;96240.69;;;14.16;87.04
77003;BME280;65939;50.060;14.288;2023-04-24T08:47:04;96242.47;;;14.22;86.63
77003;BME280;65939;50.060;14.288;2023-04-24T08:49:05;96236.81;;;14.32;86.85
77003;BME280;65939;50.060;14.288;2023-04-24T08:51:08;96241.66;;;14.42;86.98
77003;BME280;65939;50.060;14.288;2023-04-24T08:53:09;96247.69;;;14.49;86.68
77003;BME280;65939;50.060;14.288;2023-04-24T08:55:10;96247.31;;;14.52;86.90
77003;BME280;65939;50.060;14.288;2023-04-24T08:57:11;96256.16;;;14.57;86.65
77003;BME280;65939;50.060;14.288;2023-04-24T08:59:15;96255.97;;;14.66;86.45
77003;BME280;65939;50.060;14.288;2023-04-24T09:01:19;96252.88;;;14.75;86.46
77003;BME280;65939;50.060;14.288;2023-04-24T09:03:20;96252.22;;;14.87;86.32
77003;BME280;65939;50.060;14.288;2023-04-24T09:05:22;96243.91;;;14.96;85.92
77003;BME280;65939;50.060;14.288;2023-04-24T09:07:27;96245.09;;;15.07;85.73
77003;BME280;65939;50.060;14.288;2023-04-24T09:09:30;96240.41;;;15.16;84.77
77003;BME280;65939;50.060;14.288;2023-04-24T09:11:34;96241.34;;;15.28;85.50
77003;BME280;65939;50.060;14.288;2023-04-24T09:13:35;96240.88;;;15.38;85.04
77003;BME280;65939;50.060;14.288;2023-04-24T09:15:42;96241.84;;;15.43;83.84
77003;BME280;65939;50.060;14.288;2023-04-24T09:17:43;96237.34;;;15.50;83.77
77003;BME280;65939;50.060;14.288;2023-04-24T09:19:44;96242.78;;;15.55;82.58
77003;BME280;65939;50.060;14.288;2023-04-24T09:21:47;96240.00;;;15.44;81.65
77003;BME280;65939;50.060;14.288;2023-04-24T09:24:04;96239.03;;;15.45;81.75
77003;BME280;65939;50.060;14.288;2023-04-24T09:26:05;96236.94;;;15.53;82.12
77003;BME280;65939;50.060;14.288;2023-04-24T09:28:06;96247.56;;;15.65;82.16
77003;BME280;65939;50.060;14.288;2023-04-24T09:30:07;96242.25;;;15.78;82.87
77003;BME280;65939;50.060;14.288;2023-04-24T09:32:19;96237.25;;;15.95;82.56
77003;BME280;65939;50.060;14.288;2023-04-24T09:34:26;96248.25;;;16.11;82.15
77003;BME280;65939;50.060;14.288;2023-04-24T09:36:30;96240.84;;;16.26;82.22
77003;BME280;65939;50.060;14.288;2023-04-24T09:38:36;96240.56;;;16.34;80.57
77003;BME280;65939;50.060;14.288;2023-04-24T09:40:37;96239.31;;;16.37;79.17
77003;BME280;65939;50.060;14.288;2023-04-24T09:42:38;96238.59;;;16.30;77.93
77003;BME280;65939;50.060;14.288;2023-04-24T09:44:39;96219.50;;;16.34;78.80
77003;BME280;65939;50.060;14.288;2023-04-24T09:46:41;96235.81;;;16.43;78.27
77003;BME280;65939;50.060;14.288;2023-04-24T09:48:42;96233.09;;;16.49;78.62
77003;BME280;65939;50.060;14.288;2023-04-24T09:50:46;96230.16;;;16.58;78.00
77003;BME280;65939;50.060;14.288;2023-04-24T09:52:56;96233.06;;;16.74;78.95
77003;BME280;65939;50.060;14.288;2023-04-24T09:54:57;96229.56;;;16.81;76.46
77003;BME280;65939;50.060;14.288;2023-04-24T09:56:58;96227.78;;;16.74;76.24
77003;BME280;65939;50.060;14.288;2023-04-24T09:59:07;96227.94;;;16.80;75.84
77003;BME280;65939;50.060;14.288;2023-04-24T10:01:07;96222.81;;;16.85;76.76
77003;BME280;65939;50.060;14.288;2023-04-24T10:03:08;96229.84;;;16.91;75.51
77003;BME280;65939;50.060;14.288;2023-04-24T10:05:11;96217.09;;;16.88;74.27
77003;BME280;65939;50.060;14.288;2023-04-24T10:07:14;96220.09;;;16.91;74.01
77003;BME280;65939;50.060;14.288;2023-04-24T10:09:17;96210.34;;;16.92;74.21
77003;BME280;65939;50.060;14.288;2023-04-24T10:11:18;96212.84;;;16.87;74.29
77003;BME280;65939;50.060;14.288;2023-04-24T10:13:19;96220.81;;;16.98;74.59
77003;BME280;65939;50.060;14.288;2023-04-24T10:15:21;96222.22;;;17.01;74.03
77003;BME280;65939;50.060;14.288;2023-04-24T10:17:22;96208.72;;;17.09;73.73
77003;BME280;65939;50.060;14.288;2023-04-24T10:19:26;96212.50;;;17.13;72.84
77003;BME280;65939;50.060;14.288;2023-04-24T10:21:27;96212.16;;;17.10;72.69
77003;BME280;65939;50.060;14.288;2023-04-24T10:23:29;96216.31;;;17.17;72.88
77003;BME280;65939;50.060;14.288;2023-04-24T10:25:32;96219.34;;;17.33;73.24
77003;BME280;65939;50.060;14.288;2023-04-24T10:27:34;96216.38;;;17.29;71.94
77003;BME280;65939;50.060;14.288;2023-04-24T10:29:35;96218.41;;;17.27;72.26
77003;BME280;65939;50.060;14.288;2023-04-24T10:31:39;96221.75;;;17.34;72.30
77003;BME280;65939;50.060;14.288;2023-04-24T10:33:42;96213.03;;;17.34;71.20